sensor_id;sensor_type;location;lat;lon;timestamp;pressure;altitude;pressure_sealevel;temperature
71960;BMP280;59832;51.146;14.024;2023-08-20T00:02:18;98626.53;;;22.53
71960;BMP280;59832;51.146;14.024;2023-08-20T00:04:46;98625.69;;;22.56
71960;BMP280;59832;51.146;14.024;2023-08-20T00:07:12;98621.66;;;22.55
71960;BMP280;59832;51.146;14.024;2023-08-20T00:09:39;98618.97;;;22.59
71960;BMP280;59832;51.146;14.024;2023-08-20T00:12:05;98622.06;;;22.54
71960;BMP280;59832;51.146;14.024;2023-08-20T00:17:17;98621.44;;;22.63
71960;BMP280;59832;51.146;14.024;2023-08-20T00:19:43;98617.72;;;22.64
71960;BMP280;59832;51.146;14.024;2023-08-20T00:22:10;98621.03;;;22.64
71960;BMP280;59832;51.146;14.024;2023-08-20T00:24:36;98616.91;;;22.67
71960;BMP280;59832;51.146;14.024;2023-08-20T00:27:03;98608.06;;;22.64
71960;BMP280;59832;51.146;14.024;2023-08-20T00:29:29;98607.75;;;22.62
71960;BMP280;59832;51.146;14.024;2023-08-20T00:31:55;98617.00;;;22.63
71960;BMP280;59832;51.146;14.024;2023-08-20T00:34:22;98619.91;;;22.65
71960;BMP280;59832;51.146;14.024;2023-08-20T00:36:48;98620.50;;;22.69
71960;BMP280;59832;51.146;14.024;2023-08-20T00:39:15;98621.97;;;22.70
71960;BMP280;59832;51.146;14.024;2023-08-20T00:41:41;98617.91;;;22.69
71960;BMP280;59832;51.146;14.024;2023-08-20T00:44:08;98618.94;;;22.72
71960;BMP280;59832;51.146;14.024;2023-08-20T00:46:34;98617.81;;;22.73
71960;BMP280;59832;51.146;14.024;2023-08-20T00:49:00;98609.31;;;22.72
71960;BMP280;59832;51.146;14.024;2023-08-20T00:51:27;98611.50;;;22.74
71960;BMP280;59832;51.146;14.024;2023-08-20T00:53:54;98611.50;;;22.74
71960;BMP280;59832;51.146;14.024;2023-08-20T00:56:20;98610.38;;;22.75
71960;BMP280;59832;51.146;14.024;2023-08-20T00:58:47;98611.06;;;22.75
71960;BMP280;59832;51.146;14.024;2023-08-20T01:01:13;98615.84;;;22.77
71960;BMP280;59832;51.146;14.024;2023-08-20T01:03:40;98616.25;;;22.75
71960;BMP280;59832;51.146;14.024;2023-08-20T01:06:16;98613.66;;;22.75
71960;BMP280;59832;51.146;14.024;2023-08-20T01:08:46;98622.47;;;22.78
71960;BMP280;59832;51.146;14.024;2023-08-20T01:11:16;98619.16;;;22.77
71960;BMP280;59832;51.146;14.024;2023-08-20T01:13:43;98625.06;;;22.78
71960;BMP280;59832;51.146;14.024;2023-08-20T01:16:09;98618.75;;;22.79
71960;BMP280;59832;51.146;14.024;2023-08-20T01:18:36;98622.38;;;22.81
71960;BMP280;59832;51.146;14.024;2023-08-20T01:21:04;98623.94;;;22.79
71960;BMP280;59832;51.146;14.024;2023-08-20T01:26:21;98625.06;;;22.78
71960;BMP280;59832;51.146;14.024;2023-08-20T01:28:51;98630.56;;;22.80
71960;BMP280;59832;51.146;14.024;2023-08-20T01:31:18;98632.03;;;22.81
71960;BMP280;59832;51.146;14.024;2023-08-20T01:33:46;98640.44;;;22.85
71960;BMP280;59832;51.146;14.024;2023-08-20T01:36:12;98640.84;;;22.83
71960;BMP280;59832;51.146;14.024;2023-08-20T01:38:39;98636.50;;;22.80
71960;BMP280;59832;51.146;14.024;2023-08-20T01:41:05;98635.34;;;22.81
71960;BMP280;59832;51.146;14.024;2023-08-20T01:43:32;98637.53;;;22.83
71960;BMP280;59832;51.146;14.024;2023-08-20T01:45:58;98644.69;;;22.79
71960;BMP280;59832;51.146;14.024;2023-08-20T01:48:25;98652.50;;;22.79
71960;BMP280;59832;51.146;14.024;2023-08-20T01:50:51;98644.69;;;22.79
71960;BMP280;59832;51.146;14.024;2023-08-20T01:53:17;98650.94;;;22.81
71960;BMP280;59832;51.146;14.024;2023-08-20T01:55:44;98657.25;;;22.80
71960;BMP280;59832;51.146;14.024;2023-08-20T01:58:10;98656.53;;;22.80
71960;BMP280;59832;51.146;14.024;2023-08-20T02:00:36;98660.19;;;22.82
71960;BMP280;59832;51.146;14.024;2023-08-20T02:03:03;98657.97;;;22.81
71960;BMP280;59832;51.146;14.024;2023-08-20T02:05:30;98652.50;;;22.79
71960;BMP280;59832;51.146;14.024;2023-08-20T02:07:56;98660.28;;;22.79
71960;BMP280;59832;51.146;14.024;2023-08-20T02:10:23;98657.38;;;22.77
71960;BMP280;59832;51.146;14.024;2023-08-20T02:12:49;98660.38;;;22.75
71960;BMP280;59832;51.146;14.024;2023-08-20T02:15:15;98663.38;;;22.74
71960;BMP280;59832;51.146;14.024;2023-08-20T02:17:42;98660.06;;;22.73
71960;BMP280;59832;51.146;14.024;2023-08-20T02:20:08;98660.78;;;22.74
71960;BMP280;59832;51.146;14.024;2023-08-20T02:22:36;98665.97;;;22.74
71960;BMP280;59832;51.146;14.024;2023-08-20T02:25:02;98667.13;;;22.73
71960;BMP280;59832;51.146;14.024;2023-08-20T02:27:29;98666.72;;;22.74
71960;BMP280;59832;51.146;14.024;2023-08-20T02:29:55;98667.53;;;22.71
71960;BMP280;59832;51.146;14.024;2023-08-20T02:32:22;98667.53;;;22.71
71960;BMP280;59832;51.146;14.024;2023-08-20T02:34:49;98670.84;;;22.72
71960;BMP280;59832;51.146;14.024;2023-08-20T02:37:16;98665.34;;;22.70
71960;BMP280;59832;51.146;14.024;2023-08-20T02:39:42;98661.75;;;22.67
71960;BMP280;59832;51.146;14.024;2023-08-20T02:42:09;98663.28;;;22.65
71960;BMP280;59832;51.146;14.024;2023-08-20T02:44:35;98664.09;;;22.61
71960;BMP280;59832;51.146;14.024;2023-08-20T02:47:01;98665.56;;;22.63
71960;BMP280;59832;51.146;14.024;2023-08-20T02:49:28;98664.53;;;22.60
71960;BMP280;59832;51.146;14.024;2023-08-20T02:51:54;98666.81;;;22.58
71960;BMP280;59832;51.146;14.024;2023-08-20T02:54:21;98668.28;;;22.59
71960;BMP280;59832;51.146;14.024;2023-08-20T02:56:48;98664.94;;;22.58
71960;BMP280;59832;51.146;14.024;2023-08-20T02:59:14;98664.22;;;22.58
71960;BMP280;59832;51.146;14.024;2023-08-20T03:01:40;98667.53;;;22.58
71960;BMP280;59832;51.146;14.024;2023-08-20T03:04:07;98661.91;;;22.60
71960;BMP280;59832;51.146;14.024;2023-08-20T03:06:33;98663.09;;;22.59
71960;BMP280;59832;51.146;14.024;2023-08-20T03:09:00;98668.28;;;22.59
71960;BMP280;59832;51.146;14.024;2023-08-20T03:11:26;98664.53;;;22.60
71960;BMP280;59832;51.146;14.024;2023-08-20T03:13:52;98664.09;;;22.61
71960;BMP280;59832;51.146;14.024;2023-08-20T03:16:19;98665.22;;;22.60
71960;BMP280;59832;51.146;14.024;2023-08-20T03:18:45;98669.28;;;22.61
71960;BMP280;59832;51.146;14.024;2023-08-20T03:21:11;98673.00;;;22.60
71960;BMP280;59832;51.146;14.024;2023-08-20T03:23:38;98673.47;;;22.59
71960;BMP280;59832;51.146;14.024;2023-08-20T03:26:04;98670.41;;;22.60
71960;BMP280;59832;51.146;14.024;2023-08-20T03:28:30;98670.75;;;22.63
71960;BMP280;59832;51.146;14.024;2023-08-20T03:30:59;98677.72;;;22.66
71960;BMP280;59832;51.146;14.024;2023-08-20T03:33:25;98671.38;;;22.67
71960;BMP280;59832;51.146;14.024;2023-08-20T03:35:52;98675.19;;;22.62
71960;BMP280;59832;51.146;14.024;2023-08-20T03:38:18;98681.44;;;22.65
71960;BMP280;59832;51.146;14.024;2023-08-20T03:40:44;98676.16;;;22.68
71960;BMP280;59832;51.146;14.024;2023-08-20T03:43:11;98682.03;;;22.69
71960;BMP280;59832;51.146;14.024;2023-08-20T03:45:37;98695.75;;;22.69
71960;BMP280;59832;51.146;14.024;2023-08-20T03:48:05;98688.31;;;22.71
71960;BMP280;59832;51.146;14.024;2023-08-20T03:50:31;98689.34;;;22.74
71960;BMP280;59832;51.146;14.024;2023-08-20T03:52:58;98691.09;;;22.77
71960;BMP280;59832;51.146;14.024;2023-08-20T03:55:24;98686.22;;;22.79
71960;BMP280;59832;51.146;14.024;2023-08-20T03:57:50;98687.66;;;22.80
71960;BMP280;59832;51.146;14.024;2023-08-20T04:00:17;98689.53;;;22.79
71960;BMP280;59832;51.146;14.024;2023-08-20T04:02:43;98696.59;;;22.79
71960;BMP280;59832;51.146;14.024;2023-08-20T04:05:09;98691.81;;;22.77
71960;BMP280;59832;51.146;14.024;2023-08-20T04:07:36;98692.25;;;22.76
71960;BMP280;59832;51.146;14.024;2023-08-20T04:10:03;98696.69;;;22.75
71960;BMP280;59832;51.146;14.024;2023-08-20T04:12:29;98694.53;;;22.74
71960;BMP280;59832;51.146;14.024;2023-08-20T04:14:56;98693.78;;;22.73
71960;BMP280;59832;51.146;14.024;2023-08-20T04:17:22;98686.63;;;22.77
71960;BMP280;59832;51.146;14.024;2023-08-20T04:19:48;98694.72;;;22.79
71960;BMP280;59832;51.146;14.024;2023-08-20T04:22:15;98694.63;;;22.83
71960;BMP280;59832;51.146;14.024;2023-08-20T04:24:41;98705.34;;;22.85
71960;BMP280;59832;51.146;14.024;2023-08-20T04:27:08;98707.94;;;22.85
71960;BMP280;59832;51.146;14.024;2023-08-20T04:29:34;98721.19;;;22.87
71960;BMP280;59832;51.146;14.024;2023-08-20T04:32:00;98717.78;;;22.90
71960;BMP280;59832;51.146;14.024;2023-08-20T04:34:27;98714.13;;;22.87
71960;BMP280;59832;51.146;14.024;2023-08-20T04:36:53;98714.78;;;22.91
71960;BMP280;59832;51.146;14.024;2023-08-20T04:39:19;98719.84;;;22.95
71960;BMP280;59832;51.146;14.024;2023-08-20T04:41:46;98717.97;;;22.95
71960;BMP280;59832;51.146;14.024;2023-08-20T04:44:12;98725.28;;;23.00
71960;BMP280;59832;51.146;14.024;2023-08-20T04:46:38;98723.41;;;23.01
71960;BMP280;59832;51.146;14.024;2023-08-20T04:49:05;98724.22;;;22.98
71960;BMP280;59832;51.146;14.024;2023-08-20T04:51:31;98734.94;;;23.00
71960;BMP280;59832;51.146;14.024;2023-08-20T04:53:58;98740.00;;;23.03
71960;BMP280;59832;51.146;14.024;2023-08-20T04:56:24;98732.63;;;23.02
71960;BMP280;59832;51.146;14.024;2023-08-20T04:58:51;98745.72;;;22.98
71960;BMP280;59832;51.146;14.024;2023-08-20T05:01:17;98741.97;;;22.99
71960;BMP280;59832;51.146;14.024;2023-08-20T05:03:44;98739.38;;;22.99
71960;BMP280;59832;51.146;14.024;2023-08-20T05:06:10;98734.19;;;22.99
71960;BMP280;59832;51.146;14.024;2023-08-20T05:08:37;98738.66;;;22.99
71960;BMP280;59832;51.146;14.024;2023-08-20T05:11:03;98741.25;;;22.99
71960;BMP280;59832;51.146;14.024;2023-08-20T05:13:29;98752.38;;;22.99
71960;BMP280;59832;51.146;14.024;2023-08-20T05:15:56;98762.03;;;22.99
71960;BMP280;59832;51.146;14.024;2023-08-20T05:18:22;98762.09;;;22.95
71960;BMP280;59832;51.146;14.024;2023-08-20T05:20:48;98760.75;;;22.91
71960;BMP280;59832;51.146;14.024;2023-08-20T05:23:15;98757.13;;;22.88
71960;BMP280;59832;51.146;14.024;2023-08-20T05:25:41;98763.88;;;22.86
71960;BMP280;59832;51.146;14.024;2023-08-20T05:28:08;98768.66;;;22.75
71960;BMP280;59832;51.146;14.024;2023-08-20T05:30:34;98776.75;;;22.77
71960;BMP280;59832;51.146;14.024;2023-08-20T05:33:01;98781.94;;;22.77
71960;BMP280;59832;51.146;14.024;2023-08-20T05:35:27;98776.00;;;22.76
71960;BMP280;59832;51.146;14.024;2023-08-20T05:37:54;98784.41;;;22.80
71960;BMP280;59832;51.146;14.024;2023-08-20T05:40:21;98788.66;;;22.87
71960;BMP280;59832;51.146;14.024;2023-08-20T05:42:47;98786.13;;;22.99
71960;BMP280;59832;51.146;14.024;2023-08-20T05:45:17;98791.00;;;23.10
71960;BMP280;59832;51.146;14.024;2023-08-20T05:47:43;98803.78;;;23.30
71960;BMP280;59832;51.146;14.024;2023-08-20T05:50:10;98796.81;;;23.52
71960;BMP280;59832;51.146;14.024;2023-08-20T05:52:36;98793.94;;;23.84
71960;BMP280;59832;51.146;14.024;2023-08-20T05:55:03;98802.66;;;23.90
71960;BMP280;59832;51.146;14.024;2023-08-20T05:57:30;98810.44;;;23.90
71960;BMP280;59832;51.146;14.024;2023-08-20T05:59:56;98814.25;;;23.76
71960;BMP280;59832;51.146;14.024;2023-08-20T06:02:23;98811.75;;;23.73
71960;BMP280;59832;51.146;14.024;2023-08-20T06:04:49;98810.03;;;23.45
71960;BMP280;59832;51.146;14.024;2023-08-20T06:07:17;98813.94;;;23.49
71960;BMP280;59832;51.146;14.024;2023-08-20T06:09:43;98811.78;;;23.48
71960;BMP280;59832;51.146;14.024;2023-08-20T06:12:10;98819.34;;;23.30
71960;BMP280;59832;51.146;14.024;2023-08-20T06:14:36;98817.50;;;23.30
71960;BMP280;59832;51.146;14.024;2023-08-20T06:17:02;98822.38;;;23.28
71960;BMP280;59832;51.146;14.024;2023-08-20T06:19:29;98808.34;;;23.00
71960;BMP280;59832;51.146;14.024;2023-08-20T06:21:55;98819.44;;;23.13
71960;BMP280;59832;51.146;14.024;2023-08-20T06:24:22;98816.84;;;23.13
71960;BMP280;59832;51.146;14.024;2023-08-20T06:26:48;98822.78;;;23.14
71960;BMP280;59832;51.146;14.024;2023-08-20T06:29:15;98814.91;;;23.17
71960;BMP280;59832;51.146;14.024;2023-08-20T06:31:41;98828.75;;;23.27
71960;BMP280;59832;51.146;14.024;2023-08-20T06:34:07;98826.22;;;23.36
71960;BMP280;59832;51.146;14.024;2023-08-20T06:36:34;98833.06;;;23.30
71960;BMP280;59832;51.146;14.024;2023-08-20T06:39:00;98834.53;;;23.44
71960;BMP280;59832;51.146;14.024;2023-08-20T06:41:26;98828.59;;;23.56
71960;BMP280;59832;51.146;14.024;2023-08-20T06:43:53;98830.38;;;23.59
71960;BMP280;59832;51.146;14.024;2023-08-20T06:46:19;98815.09;;;23.61
71960;BMP280;59832;51.146;14.024;2023-08-20T06:48:46;98819.75;;;23.66
71960;BMP280;59832;51.146;14.024;2023-08-20T06:51:12;98815.69;;;23.65
71960;BMP280;59832;51.146;14.024;2023-08-20T06:53:39;98820.41;;;23.70
71960;BMP280;59832;51.146;14.024;2023-08-20T06:56:07;98818.06;;;23.84
71960;BMP280;59832;51.146;14.024;2023-08-20T06:58:38;98822.72;;;23.89
71960;BMP280;59832;51.146;14.024;2023-08-20T07:01:05;98823.53;;;23.99
71960;BMP280;59832;51.146;14.024;2023-08-20T07:03:35;98826.28;;;23.96
71960;BMP280;59832;51.146;14.024;2023-08-20T07:06:02;98839.72;;;23.69
71960;BMP280;59832;51.146;14.024;2023-08-20T07:08:28;98839.59;;;23.72
71960;BMP280;59832;51.146;14.024;2023-08-20T07:10:55;98832.97;;;23.71
71960;BMP280;59832;51.146;14.024;2023-08-20T07:13:21;98840.59;;;24.00
71960;BMP280;59832;51.146;14.024;2023-08-20T07:15:48;98844.97;;;24.37
71960;BMP280;59832;51.146;14.024;2023-08-20T07:18:14;98844.88;;;24.28
71960;BMP280;59832;51.146;14.024;2023-08-20T07:20:44;98849.72;;;24.39
71960;BMP280;59832;51.146;14.024;2023-08-20T07:23:11;98845.47;;;24.32
71960;BMP280;59832;51.146;14.024;2023-08-20T07:25:38;98855.00;;;24.48
71960;BMP280;59832;51.146;14.024;2023-08-20T07:28:05;98850.19;;;24.68
71960;BMP280;59832;51.146;14.024;2023-08-20T07:30:31;98851.06;;;24.65
71960;BMP280;59832;51.146;14.024;2023-08-20T07:32:58;98864.03;;;24.22
71960;BMP280;59832;51.146;14.024;2023-08-20T07:35:31;98870.50;;;24.17
71960;BMP280;59832;51.146;14.024;2023-08-20T07:37:57;98868.13;;;24.44
71960;BMP280;59832;51.146;14.024;2023-08-20T07:40:23;98869.41;;;24.62
71960;BMP280;59832;51.146;14.024;2023-08-20T07:42:50;98865.34;;;24.61
71960;BMP280;59832;51.146;14.024;2023-08-20T07:45:17;98868.06;;;24.57
71960;BMP280;59832;51.146;14.024;2023-08-20T07:47:43;98869.28;;;24.65
71960;BMP280;59832;51.146;14.024;2023-08-20T07:50:10;98873.56;;;24.59
71960;BMP280;59832;51.146;14.024;2023-08-20T07:52:36;98862.22;;;24.66
71960;BMP280;59832;51.146;14.024;2023-08-20T07:55:03;98861.03;;;24.88
71960;BMP280;59832;51.146;14.024;2023-08-20T07:57:29;98872.81;;;25.02
71960;BMP280;59832;51.146;14.024;2023-08-20T07:59:55;98876.22;;;24.68
71960;BMP280;59832;51.146;14.024;2023-08-20T08:02:22;98881.97;;;24.63
71960;BMP280;59832;51.146;14.024;2023-08-20T08:04:49;98874.00;;;25.10
71960;BMP280;59832;51.146;14.024;2023-08-20T08:07:15;98874.50;;;25.17
71960;BMP280;59832;51.146;14.024;2023-08-20T08:09:41;98885.47;;;25.22
71960;BMP280;59832;51.146;14.024;2023-08-20T08:12:08;98882.66;;;25.38
71960;BMP280;59832;51.146;14.024;2023-08-20T08:14:34;98870.81;;;25.55
71960;BMP280;59832;51.146;14.024;2023-08-20T08:17:00;98873.47;;;25.64
71960;BMP280;59832;51.146;14.024;2023-08-20T08:19:27;98866.69;;;25.84
71960;BMP280;59832;51.146;14.024;2023-08-20T08:21:54;98872.66;;;26.03
71960;BMP280;59832;51.146;14.024;2023-08-20T08:24:20;98873.25;;;26.07
71960;BMP280;59832;51.146;14.024;2023-08-20T08:26:46;98875.97;;;26.31
71960;BMP280;59832;51.146;14.024;2023-08-20T08:29:13;98875.53;;;26.41
71960;BMP280;59832;51.146;14.024;2023-08-20T08:31:39;98886.16;;;26.29
71960;BMP280;59832;51.146;14.024;2023-08-20T08:34:06;98889.47;;;26.11
71960;BMP280;59832;51.146;14.024;2023-08-20T08:36:32;98895.09;;;25.82
71960;BMP280;59832;51.146;14.024;2023-08-20T08:38:59;98898.47;;;26.28
71960;BMP280;59832;51.146;14.024;2023-08-20T08:41:25;98895.19;;;26.79
71960;BMP280;59832;51.146;14.024;2023-08-20T08:43:53;98902.63;;;26.62
71960;BMP280;59832;51.146;14.024;2023-08-20T08:46:21;98907.84;;;26.53
71960;BMP280;59832;51.146;14.024;2023-08-20T08:48:49;98903.50;;;27.10
71960;BMP280;59832;51.146;14.024;2023-08-20T08:51:16;98918.06;;;27.35
71960;BMP280;59832;51.146;14.024;2023-08-20T08:53:42;98907.53;;;26.78
71960;BMP280;59832;51.146;14.024;2023-08-20T08:56:10;98911.78;;;26.48
71960;BMP280;59832;51.146;14.024;2023-08-20T08:58:36;98907.16;;;26.16
71960;BMP280;59832;51.146;14.024;2023-08-20T09:01:03;98911.19;;;25.99
71960;BMP280;59832;51.146;14.024;2023-08-20T09:03:29;98912.47;;;25.85
71960;BMP280;59832;51.146;14.024;2023-08-20T09:05:57;98912.97;;;25.53
71960;BMP280;59832;51.146;14.024;2023-08-20T09:08:27;98916.72;;;25.43
71960;BMP280;59832;51.146;14.024;2023-08-20T09:10:54;98921.06;;;25.46
71960;BMP280;59832;51.146;14.024;2023-08-20T09:15:59;98916.97;;;25.45
71960;BMP280;59832;51.146;14.024;2023-08-20T09:18:26;98915.44;;;25.48
71960;BMP280;59832;51.146;14.024;2023-08-20T09:20:52;98913.22;;;25.46
71960;BMP280;59832;51.146;14.024;2023-08-20T09:23:18;98908.78;;;25.56
71960;BMP280;59832;51.146;14.024;2023-08-20T09:25:45;98914.31;;;25.67
71960;BMP280;59832;51.146;14.024;2023-08-20T09:28:11;98915.34;;;25.78
71960;BMP280;59832;51.146;14.024;2023-08-20T09:30:38;98920.41;;;25.64
71960;BMP280;59832;51.146;14.024;2023-08-20T09:33:15;98920.63;;;25.48
71960;BMP280;59832;51.146;14.024;2023-08-20T09:35:51;98926.88;;;25.50
71960;BMP280;59832;51.146;14.024;2023-08-20T09:38:20;98929.16;;;25.48
71960;BMP280;59832;51.146;14.024;2023-08-20T09:40:50;98924.06;;;25.45
71960;BMP280;59832;51.146;14.024;2023-08-20T09:43:18;98924.41;;;25.56
71960;BMP280;59832;51.146;14.024;2023-08-20T09:45:48;98924.84;;;25.54
71960;BMP280;59832;51.146;14.024;2023-08-20T09:48:17;98928.22;;;25.73
71960;BMP280;59832;51.146;14.024;2023-08-20T09:50:46;98933.81;;;26.11
71960;BMP280;59832;51.146;14.024;2023-08-20T09:53:22;98928.44;;;25.97
71960;BMP280;59832;51.146;14.024;2023-08-20T09:55:50;98933.53;;;26.18
71960;BMP280;59832;51.146;14.024;2023-08-20T09:58:19;98937.28;;;25.99
71960;BMP280;59832;51.146;14.024;2023-08-20T10:00:48;98937.81;;;25.85
71960;BMP280;59832;51.146;14.024;2023-08-20T10:03:16;98936.66;;;25.68
71960;BMP280;59832;51.146;14.024;2023-08-20T10:05:43;98937.41;;;25.87
71960;BMP280;59832;51.146;14.024;2023-08-20T10:08:10;98937.41;;;26.77
71960;BMP280;59832;51.146;14.024;2023-08-20T10:10:36;98936.59;;;27.13
71960;BMP280;59832;51.146;14.024;2023-08-20T10:13:03;98936.06;;;26.91
71960;BMP280;59832;51.146;14.024;2023-08-20T10:15:29;98936.63;;;26.95
71960;BMP280;59832;51.146;14.024;2023-08-20T10:17:57;98937.63;;;27.72
71960;BMP280;59832;51.146;14.024;2023-08-20T10:20:24;98929.16;;;27.53
71960;BMP280;59832;51.146;14.024;2023-08-20T10:22:57;98924.97;;;27.70
71960;BMP280;59832;51.146;14.024;2023-08-20T10:25:26;98912.69;;;27.62
71960;BMP280;59832;51.146;14.024;2023-08-20T10:27:53;98920.59;;;28.00
71960;BMP280;59832;51.146;14.024;2023-08-20T10:30:23;98919.22;;;28.19
71960;BMP280;59832;51.146;14.024;2023-08-20T10:32:52;98925.25;;;28.78
71960;BMP280;59832;51.146;14.024;2023-08-20T10:36:01;98920.28;;;28.65
71960;BMP280;59832;51.146;14.024;2023-08-20T10:38:12;98915.13;;;28.56
71960;BMP280;59832;51.146;14.024;2023-08-20T10:40:49;98916.91;;;29.14
71960;BMP280;59832;51.146;14.024;2023-08-20T10:43:51;98909.66;;;29.84
71960;BMP280;59832;51.146;14.024;2023-08-20T10:48:39;98900.38;;;29.63
71960;BMP280;59832;51.146;14.024;2023-08-20T10:51:13;98897.34;;;29.50
71960;BMP280;59832;51.146;14.024;2023-08-20T10:53:41;98902.66;;;29.76
71960;BMP280;59832;51.146;14.024;2023-08-20T10:56:17;98890.47;;;29.73
71960;BMP280;59832;51.146;14.024;2023-08-20T10:58:44;98889.34;;;29.59
71960;BMP280;59832;51.146;14.024;2023-08-20T11:01:15;98893.00;;;29.87
71960;BMP280;59832;51.146;14.024;2023-08-20T11:03:43;98885.78;;;30.08
71960;BMP280;59832;51.146;14.024;2023-08-20T11:06:09;98881.03;;;30.43
71960;BMP280;59832;51.146;14.024;2023-08-20T11:08:36;98876.97;;;30.05
71960;BMP280;59832;51.146;14.024;2023-08-20T11:11:03;98879.00;;;30.21
71960;BMP280;59832;51.146;14.024;2023-08-20T11:13:31;98880.91;;;30.26
71960;BMP280;59832;51.146;14.024;2023-08-20T11:15:58;98879.78;;;30.02
71960;BMP280;59832;51.146;14.024;2023-08-20T11:18:25;98875.69;;;30.01
71960;BMP280;59832;51.146;14.024;2023-08-20T11:20:51;98882.72;;;30.41
71960;BMP280;59832;51.146;14.024;2023-08-20T11:23:17;98872.97;;;30.47
71960;BMP280;59832;51.146;14.024;2023-08-20T11:25:44;98865.75;;;30.73
71960;BMP280;59832;51.146;14.024;2023-08-20T11:28:10;98873.19;;;31.33
71960;BMP280;59832;51.146;14.024;2023-08-20T11:30:37;98867.97;;;31.44
71960;BMP280;59832;51.146;14.024;2023-08-20T11:33:03;98868.38;;;31.32
71960;BMP280;59832;51.146;14.024;2023-08-20T11:35:30;98859.25;;;31.16
71960;BMP280;59832;51.146;14.024;2023-08-20T11:37:56;98860.25;;;31.30
71960;BMP280;59832;51.146;14.024;2023-08-20T11:40:22;98866.66;;;31.18
71960;BMP280;59832;51.146;14.024;2023-08-20T11:42:49;98866.03;;;31.45
71960;BMP280;59832;51.146;14.024;2023-08-20T11:45:16;98867.75;;;31.70
71960;BMP280;59832;51.146;14.024;2023-08-20T11:47:42;98862.00;;;31.82
71960;BMP280;59832;51.146;14.024;2023-08-20T11:50:09;98861.78;;;31.86
71960;BMP280;59832;51.146;14.024;2023-08-20T11:52:36;98864.94;;;31.09
71960;BMP280;59832;51.146;14.024;2023-08-20T11:55:03;98860.03;;;31.33
71960;BMP280;59832;51.146;14.024;2023-08-20T11:57:29;98852.19;;;31.66
71960;BMP280;59832;51.146;14.024;2023-08-20T12:00:01;98850.06;;;31.70
71960;BMP280;59832;51.146;14.024;2023-08-20T12:02:31;98844.53;;;32.02
71960;BMP280;59832;51.146;14.024;2023-08-20T12:05:05;98841.44;;;31.81
71960;BMP280;59832;51.146;14.024;2023-08-20T12:07:32;98847.88;;;31.58
71960;BMP280;59832;51.146;14.024;2023-08-20T12:10:04;98843.53;;;31.38
71960;BMP280;59832;51.146;14.024;2023-08-20T12:12:45;98847.88;;;30.82
71960;BMP280;59832;51.146;14.024;2023-08-20T12:15:14;98836.41;;;32.00
71960;BMP280;59832;51.146;14.024;2023-08-20T12:17:41;98831.34;;;32.40
71960;BMP280;59832;51.146;14.024;2023-08-20T12:20:08;98833.91;;;32.62
71960;BMP280;59832;51.146;14.024;2023-08-20T12:22:38;98836.66;;;32.18
71960;BMP280;59832;51.146;14.024;2023-08-20T12:25:06;98826.13;;;32.13
71960;BMP280;59832;51.146;14.024;2023-08-20T12:27:33;98831.59;;;32.15
71960;BMP280;59832;51.146;14.024;2023-08-20T12:30:00;98829.94;;;31.51
71960;BMP280;59832;51.146;14.024;2023-08-20T12:32:27;98824.66;;;30.33
71960;BMP280;59832;51.146;14.024;2023-08-20T12:34:53;98828.28;;;30.83
71960;BMP280;59832;51.146;14.024;2023-08-20T12:37:19;98814.16;;;31.51
71960;BMP280;59832;51.146;14.024;2023-08-20T12:39:46;98824.81;;;31.14
71960;BMP280;59832;51.146;14.024;2023-08-20T12:42:12;98810.94;;;31.14
71960;BMP280;59832;51.146;14.024;2023-08-20T12:44:38;98816.00;;;31.17
71960;BMP280;59832;51.146;14.024;2023-08-20T12:47:05;98818.41;;;31.26
71960;BMP280;59832;51.146;14.024;2023-08-20T12:49:31;98815.53;;;31.30
71960;BMP280;59832;51.146;14.024;2023-08-20T12:51:58;98813.31;;;31.00
71960;BMP280;59832;51.146;14.024;2023-08-20T12:54:24;98824.09;;;31.08
71960;BMP280;59832;51.146;14.024;2023-08-20T12:56:50;98821.91;;;31.01
71960;BMP280;59832;51.146;14.024;2023-08-20T12:59:17;98816.28;;;30.77
71960;BMP280;59832;51.146;14.024;2023-08-20T13:01:43;98812.59;;;31.00
71960;BMP280;59832;51.146;14.024;2023-08-20T13:04:10;98815.66;;;30.93
71960;BMP280;59832;51.146;14.024;2023-08-20T13:06:37;98809.69;;;30.98
71960;BMP280;59832;51.146;14.024;2023-08-20T13:09:03;98803.44;;;30.90
71960;BMP280;59832;51.146;14.024;2023-08-20T13:11:30;98796.06;;;30.46
71960;BMP280;59832;51.146;14.024;2023-08-20T13:13:57;98799.50;;;29.90
71960;BMP280;59832;51.146;14.024;2023-08-20T13:16:23;98797.56;;;30.16
71960;BMP280;59832;51.146;14.024;2023-08-20T13:18:50;98795.34;;;30.09
71960;BMP280;59832;51.146;14.024;2023-08-20T13:21:16;98794.34;;;29.75
71960;BMP280;59832;51.146;14.024;2023-08-20T13:23:43;98794.31;;;30.01
71960;BMP280;59832;51.146;14.024;2023-08-20T13:26:10;98786.13;;;30.19
71960;BMP280;59832;51.146;14.024;2023-08-20T13:28:36;98786.13;;;29.88
71960;BMP280;59832;51.146;14.024;2023-08-20T13:31:03;98785.69;;;29.95
71960;BMP280;59832;51.146;14.024;2023-08-20T13:33:29;98789.44;;;30.14
71960;BMP280;59832;51.146;14.024;2023-08-20T13:35:56;98787.75;;;30.11
71960;BMP280;59832;51.146;14.024;2023-08-20T13:38:24;98783.94;;;30.17
71960;BMP280;59832;51.146;14.024;2023-08-20T13:40:51;98779.91;;;29.85
71960;BMP280;59832;51.146;14.024;2023-08-20T13:43:17;98778.66;;;30.12
71960;BMP280;59832;51.146;14.024;2023-08-20T13:45:44;98778.56;;;30.32
71960;BMP280;59832;51.146;14.024;2023-08-20T13:48:11;98774.53;;;30.37
71960;BMP280;59832;51.146;14.024;2023-08-20T13:50:37;98782.78;;;30.18
71960;BMP280;59832;51.146;14.024;2023-08-20T13:53:04;98777.03;;;30.20
71960;BMP280;59832;51.146;14.024;2023-08-20T13:55:30;98777.78;;;30.20
71960;BMP280;59832;51.146;14.024;2023-08-20T13:57:57;98771.84;;;30.25
71960;BMP280;59832;51.146;14.024;2023-08-20T14:00:24;98771.41;;;30.33
71960;BMP280;59832;51.146;14.024;2023-08-20T14:02:50;98777.19;;;30.42
71960;BMP280;59832;51.146;14.024;2023-08-20T14:05:17;98768.28;;;30.28
71960;BMP280;59832;51.146;14.024;2023-08-20T14:07:44;98755.78;;;30.18